createdAt,value
2024-02-15T00:02:41.236Z,49.10
2024-02-15T00:05:28.753Z,49.20
2024-02-15T00:08:16.645Z,49.00
2024-02-15T00:11:04.317Z,49.00
2024-02-15T00:13:51.987Z,48.90
2024-02-15T00:16:39.369Z,48.80
2024-02-15T00:19:26.863Z,48.80
2024-02-15T00:22:14.284Z,48.70
2024-02-15T00:25:01.682Z,48.90
2024-02-15T00:27:49.110Z,49.10
2024-02-15T00:30:37.275Z,49.20
2024-02-15T00:33:24.930Z,49.10
2024-02-15T00:36:13.504Z,49.10
2024-02-15T00:39:01.032Z,49.10
2024-02-15T00:41:48.619Z,49.20
2024-02-15T00:44:36.529Z,49.30
2024-02-15T00:47:23.956Z,49.70
2024-02-15T00:50:11.517Z,50.00
2024-02-15T00:52:59.031Z,50.20
2024-02-15T00:55:47.821Z,50.30
2024-02-15T00:58:35.256Z,50.60
2024-02-15T01:01:23.357Z,50.70
2024-02-15T01:04:10.862Z,50.80
2024-02-15T01:06:58.454Z,51.00
2024-02-15T01:09:46.690Z,50.90
2024-02-15T01:12:34.396Z,50.90
2024-02-15T01:15:21.923Z,51.00
2024-02-15T01:18:09.776Z,51.30
2024-02-15T01:20:57.715Z,51.40
2024-02-15T01:23:45.382Z,51.30
2024-02-15T01:26:32.857Z,51.20
2024-02-15T01:29:20.263Z,51.30
2024-02-15T01:32:07.608Z,51.20
2024-02-15T01:34:56.314Z,51.10
2024-02-15T01:37:43.799Z,50.90
2024-02-15T01:40:31.268Z,50.90
2024-02-15T01:43:19.250Z,50.90
2024-02-15T01:46:11.520Z,50.90
2024-02-15T01:48:59.242Z,50.90
2024-02-15T01:51:47.611Z,51.00
2024-02-15T01:54:37.175Z,51.20
2024-02-15T01:57:25.479Z,51.30
2024-02-15T02:00:14.192Z,51.90
2024-02-15T02:03:04.566Z,51.40
2024-02-15T02:05:52.524Z,51.50
2024-02-15T02:08:39.934Z,51.50
2024-02-15T02:11:27.711Z,51.60
2024-02-15T02:14:15.219Z,51.70
2024-02-15T02:17:15.639Z,51.80
2024-02-15T02:20:09.647Z,51.70
2024-02-15T02:23:15.810Z,51.30
2024-02-15T02:26:03.549Z,51.90
2024-02-15T02:28:52.240Z,51.30
2024-02-15T02:31:39.666Z,51.40
2024-02-15T02:34:27.169Z,51.60
2024-02-15T02:37:15.079Z,51.40
2024-02-15T02:40:02.635Z,51.40
2024-02-15T02:42:54.524Z,51.10
2024-02-15T02:45:42.969Z,51.10
2024-02-15T02:48:30.487Z,51.20
2024-02-15T02:51:18.305Z,51.50
2024-02-15T02:54:07.864Z,51.80
2024-02-15T02:56:55.569Z,51.90
2024-02-15T02:59:43.280Z,51.90
2024-02-15T03:02:30.796Z,51.90
2024-02-15T03:05:18.639Z,52.10
2024-02-15T03:08:06.748Z,52.10
2024-02-15T03:10:54.139Z,52.20
2024-02-15T03:13:41.720Z,52.00
2024-02-15T03:16:29.154Z,51.90
2024-02-15T03:19:16.540Z,52.00
2024-02-15T03:22:03.991Z,52.00
2024-02-15T03:24:51.404Z,52.10
2024-02-15T03:27:38.750Z,51.90
2024-02-15T03:30:33.103Z,51.80
2024-02-15T03:33:22.170Z,51.80
2024-02-15T03:36:11.511Z,51.60
2024-02-15T03:38:59.050Z,51.60
2024-02-15T03:41:47.150Z,51.50
2024-02-15T03:44:34.634Z,51.50
2024-02-15T03:47:22.691Z,51.40
2024-02-15T03:50:11.024Z,51.60
2024-02-15T03:53:01.141Z,51.70
2024-02-15T03:55:48.589Z,51.80
2024-02-15T03:58:37.743Z,51.50
2024-02-15T04:01:25.241Z,51.40
2024-02-15T04:04:12.948Z,51.30
2024-02-15T04:07:00.613Z,51.40
2024-02-15T04:09:48.175Z,51.50
2024-02-15T04:12:35.909Z,51.40
2024-02-15T04:15:23.330Z,50.70
2024-02-15T04:18:12.269Z,50.50
2024-02-15T04:21:00.297Z,50.50
2024-02-15T04:23:47.841Z,50.50
2024-02-15T04:26:35.383Z,50.50
2024-02-15T04:29:22.795Z,50.20
2024-02-15T04:32:10.973Z,50.30
2024-02-15T04:34:58.298Z,50.20
2024-02-15T04:37:48.307Z,50.00
2024-02-15T04:40:36.612Z,49.90
2024-02-15T04:43:26.777Z,49.60
2024-02-15T04:46:15.466Z,49.60
2024-02-15T04:49:04.571Z,49.70
2024-02-15T04:51:52.828Z,49.60
2024-02-15T04:54:40.223Z,49.50
2024-02-15T04:57:31.298Z,49.20
2024-02-15T05:00:22.631Z,49.10
2024-02-15T05:03:10.589Z,48.90
2024-02-15T05:05:58.237Z,48.70
2024-02-15T05:08:45.746Z,48.70
2024-02-15T05:11:33.139Z,48.90
2024-02-15T05:14:21.696Z,48.80
2024-02-15T05:17:12.758Z,48.90
2024-02-15T05:20:00.412Z,49.00
2024-02-15T05:22:50.544Z,49.10
2024-02-15T05:25:38.807Z,49.30
2024-02-15T05:28:28.401Z,49.40
2024-02-15T05:31:22.007Z,49.50
2024-02-15T05:34:13.248Z,49.70
2024-02-15T05:37:00.903Z,49.90
2024-02-15T05:39:52.737Z,50.00
2024-02-15T05:42:40.123Z,50.00
2024-02-15T05:45:27.808Z,49.60
2024-02-15T05:48:15.468Z,49.50
2024-02-15T05:51:07.409Z,49.50
2024-02-15T05:53:59.917Z,49.30
2024-02-15T05:56:52.991Z,49.10
2024-02-15T05:59:41.923Z,49.20
2024-02-15T06:02:29.406Z,49.00
2024-02-15T06:05:18.289Z,49.00
2024-02-15T06:08:06.813Z,49.00
2024-02-15T06:10:54.893Z,49.00
2024-02-15T06:13:42.511Z,49.00
2024-02-15T06:16:29.896Z,49.20
2024-02-15T06:19:18.058Z,49.40
2024-02-15T06:22:05.861Z,49.50
2024-02-15T06:24:53.281Z,49.60
2024-02-15T06:27:44.077Z,49.80
2024-02-15T06:30:50.098Z,49.80
2024-02-15T06:33:56.170Z,49.80
2024-02-15T06:37:10.581Z,49.90
2024-02-15T06:39:58.026Z,50.10
2024-02-15T06:42:45.918Z,50.20
2024-02-15T06:45:33.431Z,50.10
2024-02-15T06:48:20.969Z,49.80
2024-02-15T06:51:14.366Z,49.70
2024-02-15T06:54:03.042Z,49.50
2024-02-15T06:56:50.580Z,49.60
2024-02-15T06:59:40.504Z,49.40
2024-02-15T07:02:28.067Z,49.40
2024-02-15T07:05:18.562Z,49.10
2024-02-15T07:08:07.329Z,49.00
2024-02-15T07:10:54.769Z,48.80
2024-02-15T07:13:42.922Z,48.70
2024-02-15T07:16:30.583Z,49.00
2024-02-15T07:19:19.315Z,48.70
2024-02-15T07:22:08.524Z,48.50
2024-02-15T07:24:57.286Z,48.60
2024-02-15T07:27:44.677Z,48.10
2024-02-15T07:30:32.884Z,47.70
2024-02-15T07:33:22.373Z,47.60
2024-02-15T07:36:10.295Z,47.50
2024-02-15T07:39:02.867Z,47.60
2024-02-15T07:41:51.716Z,47.40
2024-02-15T07:44:39.428Z,47.10
2024-02-15T07:47:28.790Z,46.70
2024-02-15T07:50:24.437Z,46.50
2024-02-15T07:53:13.264Z,46.40
2024-02-15T07:56:00.721Z,46.60
2024-02-15T07:58:54.019Z,47.10
2024-02-15T08:01:42.473Z,47.10
2024-02-15T08:04:30.128Z,47.20
2024-02-15T08:07:17.611Z,46.90
2024-02-15T08:10:05.844Z,46.80
2024-02-15T08:12:54.169Z,46.50
2024-02-15T08:15:41.540Z,46.40
2024-02-15T08:18:29.114Z,46.30
2024-02-15T08:21:16.788Z,46.30
2024-02-15T08:24:06.948Z,46.00
2024-02-15T08:26:55.746Z,46.10
2024-02-15T08:29:43.352Z,45.90
2024-02-15T08:32:30.829Z,45.90
2024-02-15T08:35:18.290Z,45.80
2024-02-15T08:38:19.612Z,45.90
2024-02-15T08:41:09.365Z,46.10
2024-02-15T08:44:01.832Z,47.10
2024-02-15T08:46:53.029Z,47.50
2024-02-15T08:49:41.881Z,47.50
2024-02-15T08:52:36.848Z,47.60
2024-02-15T08:55:28.340Z,47.90
2024-02-15T08:58:15.881Z,47.90
2024-02-15T09:01:04.315Z,47.80
2024-02-15T09:03:51.864Z,47.40
2024-02-15T09:06:44.352Z,47.30
2024-02-15T09:09:32.740Z,47.40
2024-02-15T09:12:20.649Z,47.40
2024-02-15T09:15:18.108Z,47.50
2024-02-15T09:18:06.525Z,46.60
2024-02-15T09:20:56.922Z,47.00
2024-02-15T09:23:44.702Z,46.70
2024-02-15T09:26:32.265Z,46.90
2024-02-15T09:29:21.954Z,47.00
2024-02-15T09:32:09.603Z,47.00
2024-02-15T09:34:57.070Z,46.70
2024-02-15T09:37:54.284Z,47.30
2024-02-15T09:40:42.105Z,47.10
2024-02-15T09:43:31.155Z,47.50
2024-02-15T09:46:18.726Z,47.20
2024-02-15T09:49:08.586Z,47.20
2024-02-15T09:52:01.508Z,47.50
2024-02-15T09:54:49.334Z,47.60
2024-02-15T09:57:39.952Z,47.70
2024-02-15T10:00:27.862Z,48.30
2024-02-15T10:03:24.398Z,48.00
2024-02-15T10:06:13.218Z,48.10
2024-02-15T10:09:31.482Z,47.70
2024-02-15T10:15:11.225Z,48.50
2024-02-15T10:18:01.387Z,48.90
2024-02-15T10:20:59.569Z,49.30
2024-02-15T10:23:47.159Z,49.80
2024-02-15T10:26:36.570Z,49.80
2024-02-15T10:29:24.014Z,49.60
2024-02-15T10:32:14.881Z,48.90
2024-02-15T10:35:06.699Z,48.70
2024-02-15T10:38:06.429Z,49.30
2024-02-15T10:41:08.165Z,49.20
2024-02-15T10:43:55.692Z,49.00
2024-02-15T10:46:47.015Z,49.20
2024-02-15T10:49:39.596Z,49.80
2024-02-15T10:52:33.547Z,50.00
2024-02-15T10:55:44.850Z,50.20
2024-02-15T10:59:07.353Z,50.30
2024-02-15T11:02:05.611Z,50.50
2024-02-15T11:04:57.866Z,50.60
2024-02-15T11:07:48.423Z,50.30
2024-02-15T11:10:38.309Z,50.40
2024-02-15T11:13:26.207Z,50.70
2024-02-15T11:16:46.936Z,51.00
2024-02-15T11:19:37.930Z,50.40
2024-02-15T11:22:25.469Z,49.80
2024-02-15T11:25:13.032Z,50.30
2024-02-15T11:28:23.234Z,50.40
2024-02-15T11:31:13.947Z,50.50
2024-02-15T11:34:53.721Z,50.80
2024-02-15T11:38:07.727Z,50.70
2024-02-15T11:40:55.237Z,51.40
2024-02-15T11:43:53.550Z,50.90
2024-02-15T11:46:42.379Z,51.10
2024-02-15T11:49:30.980Z,50.30
2024-02-15T11:52:18.961Z,50.30
2024-02-15T11:55:11.416Z,50.30
2024-02-15T11:58:18.164Z,50.60
2024-02-15T12:01:24.086Z,50.50
2024-02-15T12:04:29.928Z,50.80
2024-02-15T12:07:36.159Z,50.40
2024-02-15T12:10:42.519Z,50.60
2024-02-15T12:13:48.264Z,51.00
2024-02-15T12:16:55.786Z,51.20
2024-02-15T12:19:43.195Z,51.60
2024-02-15T12:22:37.020Z,51.50
2024-02-15T12:25:25.770Z,51.80
2024-02-15T12:28:16.071Z,51.50
2024-02-15T12:31:06.725Z,51.10
2024-02-15T12:34:09.900Z,51.20
2024-02-15T12:37:10.725Z,50.70
2024-02-15T12:40:16.977Z,50.00
2024-02-15T12:43:07.124Z,49.40
2024-02-15T12:45:55.602Z,49.10
2024-02-15T12:48:43.951Z,49.10
2024-02-15T12:51:35.170Z,50.10
2024-02-15T12:54:25.342Z,51.60
2024-02-15T12:57:17.257Z,53.00
2024-02-15T13:00:12.247Z,53.60
2024-02-15T13:03:01.317Z,55.50
2024-02-15T13:05:49.455Z,55.20
2024-02-15T13:08:37.416Z,55.80
2024-02-15T13:11:27.306Z,56.30
2024-02-15T13:14:16.808Z,56.70
2024-02-15T13:17:04.124Z,57.30
2024-02-15T13:19:51.787Z,57.20
2024-02-15T13:22:39.938Z,58.90
2024-02-15T13:25:27.573Z,58.80
2024-02-15T13:28:15.282Z,60.80
2024-02-15T13:31:02.669Z,59.50
2024-02-15T13:33:50.209Z,60.40
2024-02-15T13:36:37.793Z,60.20
2024-02-15T13:39:25.091Z,60.00
2024-02-15T13:42:13.259Z,61.00
2024-02-15T13:45:00.808Z,61.40
2024-02-15T13:47:50.202Z,61.90
2024-02-15T13:50:40.282Z,61.90
2024-02-15T13:53:29.618Z,62.70
2024-02-15T13:56:17.705Z,63.00
2024-02-15T13:59:06.710Z,63.00
2024-02-15T14:01:54.698Z,63.30
2024-02-15T14:04:41.979Z,63.30
2024-02-15T14:07:29.229Z,64.70
2024-02-15T14:10:19.692Z,63.90
2024-02-15T14:13:07.350Z,63.90
2024-02-15T14:15:54.880Z,64.40
2024-02-15T14:18:46.031Z,64.40
2024-02-15T14:21:34.790Z,65.50
2024-02-15T14:24:24.316Z,66.00
2024-02-15T14:27:12.495Z,66.40
2024-02-15T14:30:18.978Z,66.10
2024-02-15T14:33:09.670Z,66.10
2024-02-15T14:35:57.521Z,66.70
2024-02-15T14:38:45.898Z,67.30
2024-02-15T14:41:34.014Z,68.00
2024-02-15T14:44:21.406Z,67.40
2024-02-15T14:47:10.086Z,67.20
2024-02-15T14:49:57.445Z,68.00
2024-02-15T14:52:44.820Z,67.70
2024-02-15T14:55:32.571Z,67.30
2024-02-15T14:58:22.640Z,67.90
2024-02-15T15:01:10.949Z,68.00
2024-02-15T15:04:04.469Z,68.00
2024-02-15T15:07:10.659Z,67.90
2024-02-15T15:10:16.526Z,68.20
2024-02-15T15:13:04.298Z,68.40
2024-02-15T15:15:51.739Z,68.80
2024-02-15T15:18:39.220Z,68.60
2024-02-15T15:21:29.395Z,68.90
2024-02-15T15:24:17.139Z,69.30
2024-02-15T15:27:06.270Z,69.80
2024-02-15T15:29:53.767Z,70.20
2024-02-15T15:32:41.273Z,69.80
2024-02-15T15:35:32.166Z,70.10
2024-02-15T15:38:22.387Z,70.90
2024-02-15T15:41:10.500Z,70.70
2024-02-15T15:43:58.090Z,70.60
2024-02-15T15:46:45.477Z,72.00
2024-02-15T15:49:32.996Z,72.30
2024-02-15T15:52:21.337Z,72.30
2024-02-15T15:55:12.304Z,72.60
2024-02-15T15:58:00.001Z,72.90
2024-02-15T16:00:47.504Z,72.80
2024-02-15T16:03:36.880Z,73.60
2024-02-15T16:06:25.081Z,73.50
2024-02-15T16:09:12.621Z,74.00
2024-02-15T16:12:00.335Z,73.50
2024-02-15T16:14:50.739Z,73.60
2024-02-15T16:17:40.453Z,73.60
2024-02-15T16:20:27.900Z,73.90
2024-02-15T16:23:15.193Z,74.70
2024-02-15T16:26:02.522Z,74.70
2024-02-15T16:28:49.980Z,76.20
2024-02-15T16:31:37.285Z,76.60
2024-02-15T16:34:24.729Z,77.00
2024-02-15T16:37:13.128Z,78.60
2024-02-15T16:40:00.537Z,77.80
2024-02-15T16:42:50.527Z,78.50
2024-02-15T16:45:40.529Z,77.90
2024-02-15T16:48:29.048Z,78.40
2024-02-15T16:51:16.605Z,78.70
2024-02-15T16:54:06.312Z,78.50
2024-02-15T16:57:04.443Z,79.90
2024-02-15T16:59:56.075Z,81.70
2024-02-15T17:02:43.926Z,80.90
2024-02-15T17:05:31.389Z,81.70
2024-02-15T17:08:18.788Z,82.60
2024-02-15T17:11:06.129Z,82.60
2024-02-15T17:13:55.402Z,82.30
2024-02-15T17:16:45.807Z,83.90
2024-02-15T17:19:33.195Z,83.00
2024-02-15T17:22:20.597Z,83.00
2024-02-15T17:25:08.081Z,83.20
2024-02-15T17:27:57.183Z,83.80
2024-02-15T17:30:46.669Z,84.10
2024-02-15T17:33:34.125Z,84.50
2024-02-15T17:36:21.489Z,85.10
2024-02-15T17:39:09.313Z,85.50
2024-02-15T17:41:56.753Z,85.50
2024-02-15T17:44:46.098Z,86.30
2024-02-15T17:47:33.353Z,85.50
2024-02-15T17:50:23.507Z,85.80
2024-02-15T17:53:11.256Z,86.10
2024-02-15T17:56:00.982Z,86.40
2024-02-15T17:58:51.111Z,85.90
2024-02-15T18:01:40.706Z,85.90
2024-02-15T18:04:28.184Z,86.10
2024-02-15T18:07:17.730Z,86.20
2024-02-15T18:10:08.461Z,85.80
2024-02-15T18:12:58.444Z,85.60
2024-02-15T18:15:49.211Z,85.80
2024-02-15T18:18:38.978Z,85.80
2024-02-15T18:24:20.696Z,86.00
2024-02-15T18:27:08.194Z,85.70
2024-02-15T18:29:55.582Z,85.70
2024-02-15T18:32:43.006Z,85.70
2024-02-15T18:35:30.602Z,85.80
2024-02-15T18:38:17.968Z,85.50
2024-02-15T18:41:07.208Z,85.40
2024-02-15T18:43:55.914Z,85.10
2024-02-15T18:46:45.231Z,84.70
2024-02-15T18:49:36.813Z,84.50
2024-02-15T18:52:28.354Z,84.20
2024-02-15T18:55:15.984Z,83.90
2024-02-15T18:58:03.535Z,83.60
2024-02-15T19:00:57.360Z,84.20
2024-02-15T19:03:46.096Z,83.30
2024-02-15T19:06:41.359Z,83.10
2024-02-15T19:09:28.841Z,83.10
2024-02-15T19:12:16.178Z,82.90
2024-02-15T19:15:08.008Z,82.90
2024-02-15T19:17:55.508Z,82.80
2024-02-15T19:20:43.015Z,82.70
2024-02-15T19:23:30.360Z,82.60
2024-02-15T19:26:17.700Z,82.70
2024-02-15T19:29:05.957Z,82.60
2024-02-15T19:31:53.272Z,82.40
2024-02-15T19:34:42.114Z,82.80
2024-02-15T19:37:31.689Z,82.40
2024-02-15T19:40:20.396Z,82.20
2024-02-15T19:43:08.231Z,82.20
2024-02-15T19:45:57.013Z,82.00
2024-02-15T19:48:46.808Z,82.10
2024-02-15T19:51:35.994Z,82.30
2024-02-15T19:54:23.328Z,82.40
2024-02-15T19:57:10.818Z,82.30
2024-02-15T19:59:58.355Z,82.40
2024-02-15T20:02:46.847Z,82.50
2024-02-15T20:05:34.656Z,82.40
2024-02-15T20:08:22.429Z,82.60
2024-02-15T20:11:10.954Z,82.30
2024-02-15T20:13:59.232Z,82.30
2024-02-15T20:16:53.914Z,82.30
2024-02-15T20:19:41.553Z,82.40
2024-02-15T20:22:28.874Z,82.40
2024-02-15T20:25:16.189Z,82.40
2024-02-15T20:28:04.272Z,82.50
2024-02-15T20:30:51.619Z,82.60
2024-02-15T20:33:39.721Z,82.50
2024-02-15T20:36:27.294Z,82.60
2024-02-15T20:39:17.157Z,82.60
2024-02-15T20:42:05.264Z,82.90
2024-02-15T20:44:52.781Z,82.50
2024-02-15T20:47:40.149Z,82.40
2024-02-15T20:50:29.978Z,82.40
2024-02-15T20:53:18.223Z,82.60
2024-02-15T20:56:05.927Z,83.00
2024-02-15T20:58:53.184Z,83.00
2024-02-15T21:01:40.539Z,83.00
2024-02-15T21:04:28.024Z,83.00
2024-02-15T21:07:15.601Z,83.20
2024-02-15T21:10:05.366Z,83.20
2024-02-15T21:12:53.952Z,83.10
2024-02-15T21:15:41.296Z,83.70
2024-02-15T21:18:28.692Z,83.50
2024-02-15T21:21:16.393Z,83.70
2024-02-15T21:24:04.667Z,83.50
2024-02-15T21:26:52.224Z,83.50
2024-02-15T21:29:41.417Z,83.40
2024-02-15T21:32:29.342Z,83.40
2024-02-15T21:35:16.813Z,83.70
2024-02-15T21:38:04.876Z,84.00
2024-02-15T21:40:52.491Z,83.60
2024-02-15T21:43:39.897Z,83.80
2024-02-15T21:46:27.827Z,84.20
2024-02-15T21:49:15.530Z,83.50
2024-02-15T21:52:03.909Z,83.60
2024-02-15T21:54:51.272Z,83.60
2024-02-15T21:57:38.603Z,83.80
2024-02-15T22:00:26.732Z,83.70
2024-02-15T22:03:14.484Z,83.60
2024-02-15T22:06:02.973Z,83.50
2024-02-15T22:08:50.411Z,83.50
2024-02-15T22:11:37.838Z,83.70
2024-02-15T22:14:26.591Z,83.80
2024-02-15T22:17:13.865Z,84.00
2024-02-15T22:20:01.556Z,83.70
2024-02-15T22:22:48.902Z,84.10
2024-02-15T22:25:38.230Z,84.00
2024-02-15T22:28:25.571Z,83.80
2024-02-15T22:31:20.138Z,84.60
2024-02-15T22:34:07.719Z,84.30
2024-02-15T22:36:55.228Z,84.00
2024-02-15T22:39:42.617Z,84.00
2024-02-15T22:42:30.278Z,83.80
2024-02-15T22:45:17.838Z,84.10
2024-02-15T22:48:05.667Z,84.00
2024-02-15T22:50:53.381Z,83.80
2024-02-15T22:53:44.789Z,83.60
2024-02-15T22:56:33.576Z,83.90
2024-02-15T22:59:20.918Z,83.90
2024-02-15T23:02:09.065Z,83.90
2024-02-15T23:04:56.757Z,84.40
2024-02-15T23:07:44.146Z,84.00
2024-02-15T23:10:31.501Z,83.90
2024-02-15T23:13:19.198Z,84.00
2024-02-15T23:16:07.184Z,84.30
2024-02-15T23:18:54.661Z,84.90
2024-02-15T23:21:43.651Z,84.10
2024-02-15T23:24:31.086Z,84.30
2024-02-15T23:27:18.527Z,83.80
2024-02-15T23:30:12.104Z,83.60
2024-02-15T23:33:02.841Z,84.90
2024-02-15T23:36:08.973Z,84.10
2024-02-15T23:39:15.067Z,84.00
2024-02-15T23:42:02.880Z,84.90
2024-02-15T23:44:50.310Z,84.10
2024-02-15T23:47:38.842Z,84.10
2024-02-15T23:50:28.994Z,84.40
2024-02-15T23:53:16.318Z,84.10
2024-02-15T23:56:06.211Z,85.00
2024-02-15T23:58:53.555Z,84.40
